createdAt,value
2023-04-23T00:01:50.246Z,11.43
2023-04-23T00:04:19.455Z,12.32
2023-04-23T00:06:48.096Z,11.57
2023-04-23T00:09:16.850Z,11.30
2023-04-23T00:11:44.980Z,10.30
2023-04-23T00:14:12.764Z,10.95
2023-04-23T00:16:40.996Z,10.98
2023-04-23T00:19:08.992Z,11.12
2023-04-23T00:21:36.414Z,10.43
2023-04-23T00:24:03.853Z,10.50
2023-04-23T00:26:31.493Z,10.80
2023-04-23T00:28:59.039Z,10.45
2023-04-23T00:31:28.209Z,11.50
2023-04-23T00:33:56.155Z,10.95
2023-04-23T00:36:23.819Z,10.45
2023-04-23T00:38:51.259Z,11.60
2023-04-23T00:41:19.512Z,11.80
2023-04-23T00:43:49.113Z,11.00
2023-04-23T00:46:17.397Z,9.95
2023-04-23T00:48:46.456Z,9.52
2023-04-23T00:51:13.938Z,9.88
2023-04-23T00:53:41.303Z,10.05
2023-04-23T00:56:09.652Z,9.13
2023-04-23T00:58:37.045Z,9.77
2023-04-23T01:01:04.989Z,9.30
2023-04-23T01:03:36.435Z,9.73
2023-04-23T01:06:04.616Z,9.45
2023-04-23T01:08:32.575Z,10.35
2023-04-23T01:11:00.666Z,10.95
2023-04-23T01:13:29.836Z,10.25
2023-04-23T01:15:57.530Z,10.70
2023-04-23T01:18:25.185Z,9.23
2023-04-23T01:20:52.619Z,10.40
2023-04-23T01:23:20.221Z,9.43
2023-04-23T01:25:48.026Z,9.48
2023-04-23T01:28:15.575Z,9.93
2023-04-23T01:30:44.016Z,9.70
2023-04-23T01:33:11.791Z,10.15
2023-04-23T01:35:41.337Z,10.13
2023-04-23T01:38:11.103Z,9.80
2023-04-23T01:40:38.799Z,9.85
2023-04-23T01:43:08.542Z,9.32
2023-04-23T01:45:36.255Z,9.77
2023-04-23T01:48:04.325Z,8.98
2023-04-23T01:50:31.849Z,9.88
2023-04-23T01:52:59.290Z,9.48
2023-04-23T01:55:27.406Z,9.63
2023-04-23T01:57:54.861Z,9.93
2023-04-23T02:00:22.269Z,10.68
2023-04-23T02:02:52.572Z,10.07
2023-04-23T02:05:20.806Z,9.95
2023-04-23T02:07:49.956Z,10.68
2023-04-23T02:10:18.692Z,9.80
2023-04-23T02:12:47.014Z,10.35
2023-04-23T02:15:15.817Z,10.15
2023-04-23T02:17:43.246Z,10.20
2023-04-23T02:20:11.447Z,9.82
2023-04-23T02:22:40.874Z,9.48
2023-04-23T02:25:09.287Z,10.75
2023-04-23T02:27:37.009Z,9.95
2023-04-23T02:30:04.822Z,9.80
2023-04-23T02:32:32.284Z,9.25
2023-04-23T02:35:02.029Z,9.73
2023-04-23T02:37:29.408Z,8.38
2023-04-23T02:39:56.790Z,9.88
2023-04-23T02:42:24.471Z,10.07
2023-04-23T02:44:51.882Z,8.85
2023-04-23T02:47:19.430Z,9.73
2023-04-23T02:49:47.226Z,9.48
2023-04-23T02:52:14.786Z,9.55
2023-04-23T02:54:42.427Z,9.27
2023-04-23T02:57:10.625Z,10.23
2023-04-23T02:59:38.651Z,10.32
2023-04-23T03:02:06.374Z,9.43
2023-04-23T03:04:34.394Z,9.10
2023-04-23T03:07:01.816Z,9.52
2023-04-23T03:09:29.218Z,9.77
2023-04-23T03:11:57.712Z,9.73
2023-04-23T03:14:25.378Z,10.25
2023-04-23T03:16:52.878Z,9.65
2023-04-23T03:19:20.756Z,9.50
2023-04-23T03:21:48.132Z,9.00
2023-04-23T03:24:16.170Z,9.57
2023-04-23T03:26:45.340Z,9.50
2023-04-23T03:29:12.691Z,8.98
2023-04-23T03:31:40.115Z,9.63
2023-04-23T03:34:08.470Z,9.23
2023-04-23T03:36:37.209Z,9.23
2023-04-23T03:39:04.745Z,10.02
2023-04-23T03:41:33.875Z,10.35
2023-04-23T03:44:35.978Z,9.82
2023-04-23T03:47:03.879Z,10.35
2023-04-23T03:49:31.863Z,10.35
2023-04-23T03:51:59.285Z,10.20
2023-04-23T03:54:28.280Z,10.43
2023-04-23T03:56:57.651Z,9.48
2023-04-23T03:59:25.221Z,10.63
2023-04-23T04:01:53.271Z,10.10
2023-04-23T04:04:21.320Z,9.90
2023-04-23T04:06:49.132Z,10.07
2023-04-23T04:09:17.176Z,10.43
2023-04-23T04:11:44.871Z,10.73
2023-04-23T04:14:12.516Z,10.57
2023-04-23T04:16:40.324Z,11.57
2023-04-23T04:19:07.970Z,10.80
2023-04-23T04:21:35.778Z,10.85
2023-04-23T04:24:04.737Z,11.40
2023-04-23T04:26:33.728Z,10.27
2023-04-23T04:29:04.658Z,11.32
2023-04-23T04:31:32.586Z,11.77
2023-04-23T04:33:59.960Z,10.88
2023-04-23T04:36:28.720Z,9.90
2023-04-23T04:38:58.596Z,10.48
2023-04-23T04:41:26.147Z,10.27
2023-04-23T04:43:54.727Z,10.88
2023-04-23T04:46:22.395Z,10.50
2023-04-23T04:48:50.193Z,11.02
2023-04-23T04:51:17.671Z,10.80
2023-04-23T04:53:45.306Z,10.40
2023-04-23T04:56:12.704Z,10.90
2023-04-23T04:58:40.359Z,10.32
2023-04-23T05:01:08.076Z,10.63
2023-04-23T05:03:37.200Z,11.48
2023-04-23T05:06:04.780Z,10.65
2023-04-23T05:08:32.495Z,10.23
2023-04-23T05:11:01.064Z,10.68
2023-04-23T05:13:28.540Z,10.38
2023-04-23T05:15:56.252Z,10.13
2023-04-23T05:18:23.600Z,11.80
2023-04-23T05:20:51.179Z,10.50
2023-04-23T05:23:19.323Z,9.98
2023-04-23T05:25:47.315Z,11.12
2023-04-23T05:28:15.421Z,11.52
2023-04-23T05:30:43.488Z,10.85
2023-04-23T05:33:13.497Z,11.05
2023-04-23T05:35:40.913Z,11.95
2023-04-23T05:38:09.065Z,9.48
2023-04-23T05:40:36.502Z,9.48
2023-04-23T05:43:03.857Z,9.98
2023-04-23T05:45:31.629Z,9.32
2023-04-23T05:47:59.948Z,9.15
2023-04-23T05:50:27.516Z,9.43
2023-04-23T05:52:55.362Z,8.50
2023-04-23T05:55:24.006Z,8.65
2023-04-23T05:57:51.509Z,8.88
2023-04-23T06:00:19.141Z,9.15
2023-04-23T06:02:47.891Z,8.95
2023-04-23T06:05:16.905Z,7.95
2023-04-23T06:07:44.445Z,8.75
2023-04-23T06:10:12.825Z,8.90
2023-04-23T06:12:42.134Z,9.10
2023-04-23T06:15:11.345Z,8.35
2023-04-23T06:17:39.180Z,8.43
2023-04-23T06:20:07.689Z,7.80
2023-04-23T06:22:35.070Z,7.95
2023-04-23T06:25:02.830Z,8.38
2023-04-23T06:27:30.925Z,7.85
2023-04-23T06:29:59.268Z,8.02
2023-04-23T06:32:27.009Z,7.65
2023-04-23T06:35:00.826Z,7.72
2023-04-23T06:37:31.795Z,8.13
2023-04-23T06:39:59.658Z,7.28
2023-04-23T06:42:27.230Z,8.25
2023-04-23T06:44:57.100Z,7.28
2023-04-23T06:47:24.691Z,7.68
2023-04-23T06:49:52.265Z,8.02
2023-04-23T06:52:19.936Z,7.07
2023-04-23T06:54:47.334Z,7.05
2023-04-23T06:57:14.746Z,6.78
2023-04-23T06:59:42.416Z,7.53
2023-04-23T07:02:10.050Z,6.65
2023-04-23T07:04:37.577Z,6.97
2023-04-23T07:07:05.880Z,8.13
2023-04-23T07:09:33.300Z,8.63
2023-04-23T07:12:01.620Z,7.47
2023-04-23T07:14:29.318Z,8.07
2023-04-23T07:16:57.432Z,9.25
2023-04-23T07:19:25.607Z,8.65
2023-04-23T07:21:53.793Z,10.93
2023-04-23T07:24:21.252Z,10.00
2023-04-23T07:26:48.654Z,10.05
2023-04-23T07:29:16.714Z,8.85
2023-04-23T07:31:44.623Z,8.80
2023-04-23T07:34:16.841Z,8.82
2023-04-23T07:36:44.431Z,7.53
2023-04-23T07:39:11.826Z,7.75
2023-04-23T07:41:42.321Z,6.97
2023-04-23T07:44:09.860Z,6.43
2023-04-23T07:46:37.291Z,6.82
2023-04-23T07:49:04.995Z,6.18
2023-04-23T07:51:32.444Z,6.68
2023-04-23T07:53:59.817Z,6.70
2023-04-23T07:56:27.516Z,5.93
2023-04-23T07:58:56.655Z,6.97
2023-04-23T08:01:24.633Z,6.78
2023-04-23T08:03:52.677Z,6.05
2023-04-23T08:06:20.250Z,6.97
2023-04-23T08:08:47.662Z,6.50
2023-04-23T08:11:15.630Z,6.28
2023-04-23T08:13:43.194Z,7.37
2023-04-23T08:16:11.704Z,6.37
2023-04-23T08:18:39.876Z,6.43
2023-04-23T08:21:07.573Z,5.87
2023-04-23T08:23:34.988Z,7.07
2023-04-23T08:26:02.923Z,6.80
2023-04-23T08:28:31.142Z,9.25
2023-04-23T08:30:58.612Z,10.10
2023-04-23T08:33:26.377Z,8.70
2023-04-23T08:35:53.798Z,9.18
2023-04-23T08:38:21.302Z,9.13
2023-04-23T08:40:49.530Z,8.30
2023-04-23T08:43:19.911Z,8.60
2023-04-23T08:45:48.698Z,8.10
2023-04-23T08:48:16.995Z,7.78
2023-04-23T08:50:44.762Z,7.62
2023-04-23T08:53:18.897Z,6.57
2023-04-23T08:55:47.407Z,6.55
2023-04-23T08:58:15.485Z,6.78
2023-04-23T09:00:43.839Z,6.15
2023-04-23T09:03:11.771Z,6.25
2023-04-23T09:05:40.061Z,6.22
2023-04-23T09:08:08.748Z,6.22
2023-04-23T09:10:38.022Z,6.43
2023-04-23T09:13:05.540Z,6.20
2023-04-23T09:15:33.016Z,6.00
2023-04-23T09:18:00.868Z,5.37
2023-04-23T09:20:28.415Z,5.32
2023-04-23T09:22:56.023Z,5.93
2023-04-23T09:25:24.586Z,5.28
2023-04-23T09:27:53.207Z,5.30
2023-04-23T09:30:20.955Z,4.80
2023-04-23T09:32:49.638Z,5.30
2023-04-23T09:35:19.624Z,5.07
2023-04-23T09:37:52.873Z,4.80
2023-04-23T09:40:23.514Z,5.32
2023-04-23T09:42:55.857Z,4.55
2023-04-23T09:45:26.795Z,5.53
2023-04-23T09:47:56.359Z,4.80
2023-04-23T09:50:37.945Z,4.05
2023-04-23T09:53:07.202Z,4.55
2023-04-23T09:55:39.360Z,4.12
2023-04-23T09:58:11.266Z,4.00
2023-04-23T10:00:40.108Z,4.37
2023-04-23T10:03:09.058Z,4.62
2023-04-23T10:08:16.121Z,4.18
2023-04-23T10:10:59.452Z,4.87
2023-04-23T10:13:32.658Z,4.68
2023-04-23T10:16:14.000Z,4.60
2023-04-23T10:18:46.560Z,3.97
2023-04-23T10:21:15.028Z,3.80
2023-04-23T10:23:44.561Z,3.60
2023-04-23T10:26:15.191Z,4.62
2023-04-23T10:28:46.448Z,3.30
2023-04-23T10:31:14.624Z,3.97
2023-04-23T10:33:56.170Z,3.28
2023-04-23T10:36:27.716Z,3.28
2023-04-23T10:39:00.362Z,3.33
2023-04-23T10:41:34.577Z,4.10
2023-04-23T10:44:03.719Z,3.45
2023-04-23T10:46:32.609Z,3.47
2023-04-23T10:49:16.320Z,3.20
2023-04-23T10:54:19.897Z,3.33
2023-04-23T10:56:58.570Z,2.90
2023-04-23T10:59:26.930Z,2.95
2023-04-23T11:01:58.075Z,2.97
2023-04-23T11:04:30.179Z,3.25
2023-04-23T11:07:05.312Z,39.53
2023-04-23T11:09:38.964Z,2.40
2023-04-23T11:12:28.286Z,2.33
2023-04-23T11:14:56.374Z,3.00
2023-04-23T11:17:24.912Z,2.97
2023-04-23T11:20:06.736Z,2.90
2023-04-23T11:22:39.217Z,2.90
2023-04-23T11:25:11.215Z,3.35
2023-04-23T11:27:45.877Z,2.45
2023-04-23T11:30:15.519Z,2.62
2023-04-23T11:32:50.613Z,2.78
2023-04-23T11:35:29.845Z,2.70
2023-04-23T11:37:57.581Z,3.03
2023-04-23T11:40:25.807Z,2.47
2023-04-23T11:42:57.692Z,3.00
2023-04-23T11:45:29.243Z,3.03
2023-04-23T11:47:58.073Z,3.45
2023-04-23T11:50:29.004Z,2.95
2023-04-23T11:52:56.870Z,3.03
2023-04-23T11:55:25.531Z,3.47
2023-04-23T11:57:53.336Z,3.10
2023-04-23T12:00:25.388Z,3.08
2023-04-23T12:02:58.001Z,3.30
2023-04-23T12:05:30.949Z,3.15
2023-04-23T12:08:17.824Z,3.03
2023-04-23T12:11:00.019Z,3.12
2023-04-23T12:13:34.569Z,3.65
2023-04-23T12:16:04.540Z,3.00
2023-04-23T12:18:37.903Z,3.50
2023-04-23T12:21:14.520Z,2.80
2023-04-23T12:23:44.789Z,3.00
2023-04-23T12:26:15.262Z,2.67
2023-04-23T12:29:01.492Z,3.10
2023-04-23T12:31:30.050Z,3.30
2023-04-23T12:34:05.406Z,2.87
2023-04-23T12:36:37.976Z,3.17
2023-04-23T12:39:26.116Z,3.28
2023-04-23T12:42:00.631Z,3.85
2023-04-23T12:44:29.697Z,3.47
2023-04-23T12:46:59.566Z,2.85
2023-04-23T12:49:27.534Z,3.00
2023-04-23T12:51:57.823Z,3.87
2023-04-23T12:54:29.736Z,3.50
2023-04-23T12:56:58.848Z,2.85
2023-04-23T12:59:26.527Z,3.30
2023-04-23T13:01:56.071Z,2.67
2023-04-23T13:04:25.055Z,3.42
2023-04-23T13:06:52.424Z,3.50
2023-04-23T13:09:19.846Z,3.45
2023-04-23T13:11:49.782Z,2.87
2023-04-23T13:14:35.090Z,3.40
2023-04-23T13:17:02.800Z,2.97
2023-04-23T13:19:30.308Z,3.30
2023-04-23T13:21:57.734Z,3.28
2023-04-23T13:24:25.668Z,3.00
2023-04-23T13:26:53.036Z,3.15
2023-04-23T13:29:20.428Z,3.37
2023-04-23T13:31:50.551Z,2.78
2023-04-23T13:34:18.458Z,2.75
2023-04-23T13:36:46.131Z,3.12
2023-04-23T13:39:14.310Z,3.00
2023-04-23T13:41:41.841Z,2.83
2023-04-23T13:44:09.488Z,3.08
2023-04-23T13:46:37.197Z,2.80
2023-04-23T13:49:04.654Z,3.50
2023-04-23T13:51:35.644Z,2.78
2023-04-23T13:54:04.078Z,2.90
2023-04-23T13:56:31.756Z,3.30
2023-04-23T13:59:19.375Z,2.60
2023-04-23T14:01:50.286Z,2.45
2023-04-23T14:04:18.930Z,2.85
2023-04-23T14:06:46.415Z,2.87
2023-04-23T14:09:13.776Z,2.83
2023-04-23T14:11:41.702Z,3.00
2023-04-23T14:14:09.250Z,2.87
2023-04-23T14:16:36.700Z,2.87
2023-04-23T14:19:04.795Z,3.10
2023-04-23T14:21:32.198Z,3.03
2023-04-23T14:24:03.402Z,3.37
2023-04-23T14:26:44.784Z,3.37
2023-04-23T14:29:37.842Z,3.33
2023-04-23T14:32:06.461Z,3.45
2023-04-23T14:34:36.802Z,2.92
2023-04-23T14:37:04.424Z,2.85
2023-04-23T14:39:33.949Z,3.83
2023-04-23T14:42:01.351Z,3.53
2023-04-23T14:44:29.120Z,3.30
2023-04-23T14:46:58.011Z,3.33
2023-04-23T14:49:25.594Z,3.92
2023-04-23T14:51:54.594Z,3.03
2023-04-23T14:54:22.778Z,3.08
2023-04-23T14:56:54.281Z,3.65
2023-04-23T14:59:21.947Z,3.45
2023-04-23T15:01:49.486Z,3.20
2023-04-23T15:04:17.035Z,3.30
2023-04-23T15:06:44.864Z,3.50
2023-04-23T15:09:12.302Z,2.95
2023-04-23T15:11:41.734Z,3.12
2023-04-23T15:14:45.323Z,3.00
2023-04-23T15:17:12.871Z,2.92
2023-04-23T15:19:40.986Z,3.40
2023-04-23T15:22:08.598Z,2.85
2023-04-23T15:24:35.942Z,3.10
2023-04-23T15:27:03.747Z,2.92
2023-04-23T15:29:31.291Z,2.80
2023-04-23T15:31:59.641Z,2.72
2023-04-23T15:34:27.367Z,3.33
2023-04-23T15:36:54.814Z,3.00
2023-04-23T15:39:22.339Z,3.28
2023-04-23T15:41:51.473Z,3.28
2023-04-23T15:44:19.271Z,2.83
2023-04-23T15:46:46.705Z,3.20
2023-04-23T15:49:14.528Z,2.90
2023-04-23T15:51:42.341Z,3.50
2023-04-23T15:54:09.800Z,3.00
2023-04-23T15:56:37.658Z,2.87
2023-04-23T15:59:06.091Z,3.10
2023-04-23T16:01:33.784Z,3.17
2023-04-23T16:06:49.308Z,3.03
2023-04-23T16:09:16.931Z,3.12
2023-04-23T16:11:44.662Z,2.90
2023-04-23T16:14:12.296Z,3.45
2023-04-23T16:16:40.155Z,3.10
2023-04-23T16:19:07.642Z,3.00
2023-04-23T16:21:35.462Z,3.15
2023-04-23T16:24:03.816Z,2.95
2023-04-23T16:26:32.303Z,3.50
2023-04-23T16:29:11.276Z,3.12
2023-04-23T16:31:45.573Z,2.97
2023-04-23T16:34:13.100Z,3.10
2023-04-23T16:36:41.147Z,2.97
2023-04-23T16:39:09.536Z,3.17
2023-04-23T16:41:39.465Z,3.30
2023-04-23T16:44:07.014Z,3.08
2023-04-23T16:46:34.740Z,2.72
2023-04-23T16:49:03.285Z,3.12
2023-04-23T16:51:32.406Z,3.10
2023-04-23T16:54:00.057Z,2.92
2023-04-23T16:56:27.691Z,3.40
2023-04-23T16:58:55.164Z,3.80
2023-04-23T17:01:23.006Z,3.25
2023-04-23T17:03:50.998Z,3.53
2023-04-23T17:06:31.997Z,3.35
2023-04-23T17:09:01.601Z,3.20
2023-04-23T17:11:30.847Z,3.35
2023-04-23T17:13:59.208Z,3.22
2023-04-23T17:16:28.685Z,3.28
2023-04-23T17:18:58.139Z,3.28
2023-04-23T17:21:26.399Z,3.40
2023-04-23T17:23:54.656Z,3.33
2023-04-23T17:26:23.506Z,3.92
2023-04-23T17:28:51.919Z,3.55
2023-04-23T17:31:22.947Z,2.90
2023-04-23T17:33:55.095Z,3.50
2023-04-23T17:36:23.323Z,3.35
2023-04-23T17:38:51.620Z,4.03
2023-04-23T17:41:19.459Z,3.40
2023-04-23T17:43:47.718Z,3.50
2023-04-23T17:46:16.026Z,3.65
2023-04-23T17:48:45.280Z,4.00
2023-04-23T17:51:18.817Z,4.82
2023-04-23T17:53:51.471Z,3.85
2023-04-23T17:56:20.009Z,4.03
2023-04-23T17:58:49.919Z,3.80
2023-04-23T18:01:18.031Z,4.30
2023-04-23T18:03:48.034Z,3.67
2023-04-23T18:06:19.543Z,3.83
2023-04-23T18:08:51.154Z,4.32
2023-04-23T18:11:24.079Z,3.67
2023-04-23T18:13:54.064Z,4.12
2023-04-23T18:16:22.353Z,3.62
2023-04-23T18:18:50.400Z,3.80
2023-04-23T18:21:18.615Z,4.75
2023-04-23T18:23:47.126Z,4.05
2023-04-23T18:26:15.765Z,4.85
2023-04-23T18:28:48.684Z,5.10
2023-04-23T18:31:20.637Z,4.80
2023-04-23T18:33:54.815Z,4.37
2023-04-23T18:36:32.077Z,4.43
2023-04-23T18:39:01.708Z,4.78
2023-04-23T18:41:31.408Z,5.50
2023-04-23T18:44:00.586Z,4.57
2023-04-23T18:46:31.278Z,5.05
2023-04-23T18:49:01.397Z,5.18
2023-04-23T18:51:44.473Z,4.75
2023-04-23T18:54:15.521Z,4.82
2023-04-23T18:56:47.789Z,5.20
2023-04-23T18:59:15.958Z,4.62
2023-04-23T19:01:46.779Z,5.28
2023-04-23T19:04:15.627Z,4.47
2023-04-23T19:06:46.238Z,4.78
2023-04-23T19:09:14.925Z,5.00
2023-04-23T19:11:48.255Z,5.35
2023-04-23T19:14:17.100Z,4.70
2023-04-23T19:16:48.219Z,4.82
2023-04-23T19:19:17.422Z,5.15
2023-04-23T19:21:45.515Z,5.60
2023-04-23T19:24:13.596Z,5.10
2023-04-23T19:26:42.014Z,5.05
2023-04-23T19:29:10.636Z,4.97
2023-04-23T19:31:39.008Z,5.37
2023-04-23T19:34:10.552Z,5.10
2023-04-23T19:36:39.954Z,5.12
2023-04-23T19:39:10.447Z,5.28
2023-04-23T19:41:39.562Z,5.12
2023-04-23T19:44:12.946Z,5.22
2023-04-23T19:47:03.560Z,5.05
2023-04-23T19:49:39.287Z,5.15
2023-04-23T19:52:07.303Z,4.78
2023-04-23T19:54:35.609Z,4.95
2023-04-23T19:57:05.142Z,4.85
2023-04-23T19:59:33.991Z,4.62
2023-04-23T20:02:02.433Z,5.18
2023-04-23T20:04:31.354Z,5.47
2023-04-23T20:06:59.464Z,4.87
2023-04-23T20:09:28.724Z,5.00
2023-04-23T20:11:56.871Z,4.87
2023-04-23T20:14:25.449Z,4.70
2023-04-23T20:16:53.122Z,4.90
2023-04-23T20:19:25.984Z,4.78
2023-04-23T20:21:54.011Z,4.95
2023-04-23T20:24:21.901Z,5.28
2023-04-23T20:26:49.749Z,5.00
2023-04-23T20:29:17.331Z,4.97
2023-04-23T20:31:49.599Z,5.07
2023-04-23T20:34:18.377Z,5.00
2023-04-23T20:36:51.143Z,5.35
2023-04-23T20:39:21.101Z,5.07
2023-04-23T20:41:50.744Z,5.05
2023-04-23T20:44:22.347Z,5.70
2023-04-23T20:46:51.399Z,4.68
2023-04-23T20:49:20.873Z,5.30
2023-04-23T20:51:51.562Z,4.55
2023-04-23T20:54:18.977Z,5.03
2023-04-23T20:56:46.369Z,4.87
2023-04-23T20:59:14.496Z,5.80
2023-04-23T21:01:42.117Z,5.68
2023-04-23T21:04:10.926Z,5.57
2023-04-23T21:06:39.130Z,5.57
2023-04-23T21:09:06.949Z,5.55
2023-04-23T21:11:34.568Z,5.40
2023-04-23T21:14:02.242Z,6.00
2023-04-23T21:16:29.726Z,6.30
2023-04-23T21:18:57.230Z,5.45
2023-04-23T21:21:28.001Z,6.22
2023-04-23T21:23:56.518Z,6.07
2023-04-23T21:26:24.174Z,5.57
2023-04-23T21:28:51.815Z,6.10
2023-04-23T21:31:29.758Z,5.82
2023-04-23T21:33:57.518Z,6.32
2023-04-23T21:36:24.984Z,5.70
2023-04-23T21:38:53.139Z,5.70
2023-04-23T21:41:20.835Z,6.35
2023-04-23T21:43:48.256Z,5.22
2023-04-23T21:46:16.224Z,6.25
2023-04-23T21:48:43.889Z,5.57
2023-04-23T21:51:11.717Z,5.68
2023-04-23T21:53:39.844Z,6.25
2023-04-23T21:56:07.464Z,6.10
2023-04-23T21:58:36.095Z,5.55
2023-04-23T22:01:04.039Z,6.05
2023-04-23T22:03:38.671Z,5.72
2023-04-23T22:08:38.140Z,7.18
2023-04-23T22:11:07.578Z,6.97
2023-04-23T22:13:36.357Z,5.87
2023-04-23T22:16:10.737Z,6.47
2023-04-23T22:18:47.269Z,6.37
2023-04-23T22:21:15.549Z,6.28
2023-04-23T22:23:43.125Z,6.10
2023-04-23T22:26:10.617Z,6.45
2023-04-23T22:28:38.420Z,6.12
2023-04-23T22:31:05.829Z,6.30
2023-04-23T22:33:33.205Z,6.07
2023-04-23T22:36:01.297Z,6.37
2023-04-23T22:38:29.830Z,6.37
2023-04-23T22:40:57.272Z,5.82
2023-04-23T22:43:24.956Z,7.32
2023-04-23T22:45:52.362Z,6.68
2023-04-23T22:48:19.824Z,6.32
2023-04-23T22:50:50.850Z,6.50
2023-04-23T22:53:19.643Z,6.80
2023-04-23T22:55:47.440Z,6.50
2023-04-23T22:58:15.285Z,6.75
2023-04-23T23:00:42.662Z,6.15
2023-04-23T23:03:10.504Z,6.30
2023-04-23T23:05:38.117Z,8.10
2023-04-23T23:08:06.756Z,7.40
2023-04-23T23:10:34.434Z,7.18
2023-04-23T23:13:02.099Z,7.32
2023-04-23T23:15:29.549Z,6.57
2023-04-23T23:17:57.860Z,7.10
2023-04-23T23:20:25.562Z,5.75
2023-04-23T23:22:52.971Z,6.87
2023-04-23T23:25:20.695Z,7.25
2023-04-23T23:27:48.075Z,6.50
2023-04-23T23:30:16.265Z,6.55
2023-04-23T23:32:43.989Z,6.62
2023-04-23T23:35:11.557Z,6.70
2023-04-23T23:37:38.929Z,7.22
2023-04-23T23:40:07.429Z,6.78
2023-04-23T23:42:35.133Z,7.30
2023-04-23T23:45:02.849Z,7.05
2023-04-23T23:47:31.166Z,7.05
2023-04-23T23:49:59.185Z,6.82
2023-04-23T23:52:26.610Z,8.07
2023-04-23T23:54:54.298Z,8.30
2023-04-23T23:57:21.834Z,6.85
2023-04-23T23:59:49.207Z,6.50
